createdAt,value
2018-11-21T00:01:37.102Z,18.77
2018-11-21T00:06:29.952Z,18.60
2018-11-21T00:11:22.616Z,18.17
2018-11-21T00:16:15.002Z,18.93
2018-11-21T00:21:07.904Z,18.17
2018-11-21T00:26:01.165Z,17.77
2018-11-21T00:30:53.892Z,17.23
2018-11-21T00:35:46.635Z,17.00
2018-11-21T00:40:39.527Z,17.87
2018-11-21T00:45:32.206Z,16.97
2018-11-21T00:50:25.188Z,17.63
2018-11-21T00:55:18.296Z,18.93
2018-11-21T01:00:12.232Z,18.63
2018-11-21T01:05:05.493Z,18.97
2018-11-21T01:09:58.063Z,17.63
2018-11-21T01:14:50.273Z,17.87
2018-11-21T01:19:42.696Z,17.83
2018-11-21T01:24:34.954Z,18.63
2018-11-21T01:29:27.634Z,18.37
2018-11-21T01:34:20.139Z,18.60
2018-11-21T01:39:13.162Z,19.93
2018-11-21T01:44:07.203Z,18.27
2018-11-21T01:48:59.825Z,18.13
2018-11-21T01:53:53.269Z,18.67
2018-11-21T01:58:45.761Z,18.20
2018-11-21T02:03:39.351Z,19.37
2018-11-21T02:08:32.953Z,20.00
2018-11-21T02:13:26.709Z,19.77
2018-11-21T02:18:23.469Z,19.57
2018-11-21T02:23:16.104Z,19.13
2018-11-21T02:28:08.752Z,20.07
2018-11-21T02:33:04.203Z,19.67
2018-11-21T02:37:57.327Z,20.97
2018-11-21T02:42:53.533Z,20.13
2018-11-21T02:47:46.020Z,20.33
2018-11-21T02:52:39.066Z,20.03
2018-11-21T02:57:33.154Z,21.23
2018-11-21T03:02:26.036Z,20.30
2018-11-21T03:07:19.721Z,20.27
2018-11-21T03:12:11.955Z,20.00
2018-11-21T03:17:04.601Z,20.10
2018-11-21T03:21:57.236Z,20.33
2018-11-21T03:26:49.842Z,20.37
2018-11-21T03:31:42.455Z,21.60
2018-11-21T03:36:35.379Z,20.90
2018-11-21T03:41:27.813Z,21.40
2018-11-21T03:46:20.277Z,22.10
2018-11-21T03:51:13.266Z,21.43
2018-11-21T03:56:06.528Z,21.87
2018-11-21T04:00:58.708Z,20.47
2018-11-21T04:05:51.044Z,21.27
2018-11-21T04:10:43.769Z,22.40
2018-11-21T04:15:36.277Z,19.60
2018-11-21T04:20:28.437Z,21.90
2018-11-21T04:25:21.099Z,22.50
2018-11-21T04:30:13.864Z,21.83
2018-11-21T04:35:08.198Z,22.10
2018-11-21T04:40:01.023Z,22.90
2018-11-21T04:44:53.223Z,22.87
2018-11-21T04:49:46.308Z,22.00
2018-11-21T04:54:38.808Z,22.13
2018-11-21T04:59:31.370Z,21.47
2018-11-21T05:04:23.798Z,20.90
2018-11-21T05:09:16.645Z,21.87
2018-11-21T05:14:09.152Z,20.00
2018-11-21T05:19:01.622Z,20.83
2018-11-21T05:23:54.585Z,21.30
2018-11-21T05:28:46.935Z,21.07
2018-11-21T05:33:39.865Z,22.13
2018-11-21T05:38:32.451Z,20.20
2018-11-21T05:43:24.850Z,20.40
2018-11-21T05:48:17.254Z,20.90
2018-11-21T05:53:10.154Z,22.03
2018-11-21T05:58:03.033Z,19.93
2018-11-21T06:02:55.171Z,21.17
2018-11-21T06:07:47.806Z,20.83
2018-11-21T06:12:40.711Z,21.27
2018-11-21T06:17:33.786Z,21.70
2018-11-21T06:22:26.327Z,21.03
2018-11-21T06:27:19.532Z,20.10
2018-11-21T06:32:11.737Z,20.83
2018-11-21T06:37:04.393Z,20.53
2018-11-21T06:41:56.992Z,22.87
2018-11-21T06:46:49.448Z,21.27
2018-11-21T06:51:41.670Z,21.60
2018-11-21T06:56:34.172Z,21.70
2018-11-21T07:01:26.679Z,21.73
2018-11-21T07:06:25.851Z,22.10
2018-11-21T07:11:18.361Z,23.07
2018-11-21T07:16:12.886Z,22.30
2018-11-21T07:21:06.409Z,21.63
2018-11-21T07:25:59.375Z,23.40
2018-11-21T07:30:51.950Z,24.33
2018-11-21T07:35:44.801Z,20.93
2018-11-21T07:40:38.405Z,21.77
2018-11-21T07:45:31.352Z,21.10
2018-11-21T07:50:24.605Z,22.23
2018-11-21T07:55:17.850Z,22.23
2018-11-21T08:01:25.686Z,20.97
2018-11-21T08:06:23.383Z,21.80
2018-11-21T08:11:33.138Z,22.67
2018-11-21T08:16:43.762Z,22.47
2018-11-21T08:21:53.812Z,21.37
2018-11-21T08:27:04.389Z,20.23
2018-11-21T08:31:57.275Z,20.43
2018-11-21T08:36:50.251Z,20.97
2018-11-21T08:41:43.311Z,20.63
2018-11-21T08:46:36.130Z,19.47
2018-11-21T08:51:28.647Z,20.80
2018-11-21T08:56:21.685Z,20.87
2018-11-21T09:01:14.605Z,21.17
2018-11-21T09:06:07.112Z,21.33
2018-11-21T09:11:00.128Z,22.97
2018-11-21T09:15:53.467Z,20.47
2018-11-21T09:20:45.828Z,20.73
2018-11-21T09:25:39.014Z,21.53
2018-11-21T09:30:31.506Z,19.73
2018-11-21T09:35:24.472Z,19.03
2018-11-21T09:40:18.557Z,19.53
2018-11-21T09:45:12.985Z,18.40
2018-11-21T09:50:10.945Z,18.83
2018-11-21T09:55:03.176Z,20.23
2018-11-21T09:59:55.893Z,18.53
2018-11-21T10:04:49.042Z,19.70
2018-11-21T10:09:43.957Z,18.87
2018-11-21T10:14:36.456Z,19.33
2018-11-21T10:19:29.700Z,19.07
2018-11-21T10:24:22.356Z,17.90
2018-11-21T10:29:14.608Z,19.37
2018-11-21T10:34:07.110Z,20.97
2018-11-21T10:38:59.785Z,18.60
2018-11-21T10:43:52.100Z,19.43
2018-11-21T10:48:44.835Z,18.83
2018-11-21T10:53:37.500Z,17.37
2018-11-21T10:58:29.670Z,17.10
2018-11-21T11:03:24.200Z,18.23
2018-11-21T11:08:35.603Z,18.30
2018-11-21T11:13:46.053Z,18.53
2018-11-21T11:19:04.054Z,17.47
2018-11-21T11:24:27.758Z,18.47
2018-11-21T11:29:54.705Z,18.67
2018-11-21T11:35:05.145Z,18.00
2018-11-21T11:40:16.988Z,17.53
2018-11-21T11:45:27.332Z,18.20
2018-11-21T11:50:37.750Z,18.43
2018-11-21T11:55:48.419Z,17.93
2018-11-21T12:01:04.615Z,18.87
2018-11-21T12:06:14.908Z,18.10
2018-11-21T12:11:25.507Z,18.23
2018-11-21T12:16:30.954Z,18.23
2018-11-21T12:21:42.504Z,18.07
2018-11-21T12:26:54.868Z,17.67
2018-11-21T12:32:12.782Z,17.70
2018-11-21T12:37:33.881Z,18.03
2018-11-21T12:42:54.400Z,19.10
2018-11-21T12:48:05.008Z,18.53
2018-11-21T12:53:19.327Z,18.00
2018-11-21T12:58:27.654Z,18.60
2018-11-21T13:03:39.044Z,18.27
2018-11-21T13:08:49.848Z,17.37
2018-11-21T13:14:07.525Z,18.47
2018-11-21T13:19:27.962Z,18.73
2018-11-21T13:24:38.151Z,18.20
2018-11-21T13:29:50.095Z,19.17
2018-11-21T13:35:00.289Z,17.60
2018-11-21T13:40:13.248Z,19.27
2018-11-21T13:45:31.550Z,18.23
2018-11-21T13:50:52.185Z,17.97
2018-11-21T13:55:44.941Z,18.63
2018-11-21T14:00:37.416Z,18.47
2018-11-21T14:05:30.046Z,19.27
2018-11-21T14:10:22.232Z,19.20
2018-11-21T14:15:14.735Z,18.73
2018-11-21T14:20:09.914Z,19.23
2018-11-21T14:25:02.476Z,19.10
2018-11-21T14:29:55.033Z,19.27
2018-11-21T14:34:47.802Z,19.87
2018-11-21T14:39:40.256Z,19.23
2018-11-21T14:44:32.811Z,19.97
2018-11-21T14:49:25.435Z,19.77
2018-11-21T14:54:18.156Z,20.70
2018-11-21T14:59:10.811Z,20.10
2018-11-21T15:04:03.799Z,19.27
2018-11-21T15:08:56.450Z,19.67
2018-11-21T15:13:48.750Z,20.23
2018-11-21T15:18:41.142Z,19.27
2018-11-21T15:23:33.917Z,19.90
2018-11-21T15:28:26.336Z,20.67
2018-11-21T15:33:18.672Z,18.93
2018-11-21T15:38:11.374Z,19.60
2018-11-21T15:43:03.844Z,19.43
2018-11-21T15:48:00.459Z,19.17
2018-11-21T15:52:53.284Z,20.60
2018-11-21T15:57:45.990Z,21.10
2018-11-21T16:02:38.461Z,19.93
2018-11-21T16:07:30.969Z,19.33
2018-11-21T16:12:23.594Z,19.37
2018-11-21T16:17:16.480Z,15.40
2018-11-21T16:22:09.045Z,19.23
2018-11-21T16:27:01.586Z,20.60
2018-11-21T16:31:54.583Z,20.10
2018-11-21T16:36:47.198Z,20.20
2018-11-21T16:41:39.585Z,20.30
2018-11-21T16:46:32.252Z,20.00
2018-11-21T16:51:24.929Z,20.43
2018-11-21T16:56:17.236Z,20.53
2018-11-21T17:01:09.323Z,22.33
2018-11-21T17:06:03.078Z,21.93
